Toyama Airport, Japan

8:53 AM JST on July 23, 2014 (GMT +0900)
Toyama (RJNT) Elev 89 ft | 36.65 °N, 137.19 °E | Change Station

Current weather conditions updated 53 minutes ago

Partly Cloudy
Partly Cloudy
81 °F
Feels Like 85 °F
N
4
Wind Variable Wind from West

Today is forecast to be nearly the same temperature as yesterday. Chance of afternoon showers.

Today
High -- | Low -- °F
--% Chance of Precip.
Yesterday
High -- | Low -- °F
Precip. -- in
4:49 AM 7:05 PM
Waning Crescent, 14% visible
Pressure 29.71 in
Visibility 6.2 miles
Clouds Few 5000 ft
Heat Index 85 °F
Dew Point 72 °F
Humidity 74%
Rainfall 0.00 in
Snow Depth Not available.
UV 4 out of 12
Pollen Not available.
Air Quality Not available.
Flu Activity Not available.
METAR RJNT 222300Z 26003KT 220V300 9999 FEW050 BKN/// 27/22 Q1006

More Conditions Fewer Conditions

Pressure 29.71 in
Visibility 6.2 miles
Clouds Few 5000 ft
Heat Index 85 °F
Dew Point 72 °F
Humidity 74%
Rainfall 0.00 in
Snow Depth Not available.
UV 4 out of 12
Pollen Not available.
Air Quality Not available.
Flu Activity Not available.
METAR RJNT 222300Z 26003KT 220V300 9999 FEW050 BKN/// 27/22 Q1006

More Conditions Fewer Conditions

10-Day Weather Forecast

Almanac

Astronomy

Jul. 23, 2014 Rise Set
Actual Time 4:49 AM JST 7:05 PM JST
Civil Twilight 4:20 AM JST 7:34 PM JST
Nautical Twilight 3:44 AM JST 8:10 PM JST
Astronomical Twilight 3:05 AM JST 8:49 PM JST
Moon 1:38 AM JST (7/23) 4:03 PM JST (7/23)
Length of Visible Light 15h 14m
Length of Day
14h 15m
Tomorrow will be 1m 28s shorter.
Waning Crescent, 14% of the Moon is Illuminated
Jul 22
Waning Crescent
Jul 26
New
Aug 3
First Quarter
Aug 10
Full
Aug 17
Last Quarter

Yesterday's Extremes

Country Highs Country Lows

Community

WunderPhotos

Upload Photos

1,736,391 photos uploaded!

Nearby

Snow Depth

Not available.

Earthquake Activity

City Distance Mag. Time & Date
No recent earthquake activity has been reported nearby.
Minimum magnitude displayed is 2.5.

Coastal Water Temperatures

Place Temperature
No Stations Reporting

Nearby Weather Stations

Station Location Temp. Heat Index Dew Point Humidity Wind Precip. Elev Updated Type
JR9MAR-WX, TONAMI 84.0 °F 90 °F 73 °F 69% SSE  at  0.4 mph 0.00 in / hr 325 ft 8:52 AM JST Rapid Fire

Show More Stations Show Fewer Stations